Luke Air Force Base Glendale US
ICAO: KLUF
IATA: LUF
Category: Large
Scheduled Services: No

Elevation: 1085 ft
TransAlt. 18000 ft.

Airport Communications:
APP/DEP:120.7
ATIS:134.925
CLNC DEL:126.25
GND:133.175
PMSV METRO:26.74
COMD POST:34.94
PTD:37.22
TWR:119.1

KLUF Zoom In..

Runways:

(A) RW 03L length 10012 ft width 150 ft
---- / hdg 30

(B) RW 03R length 9904 ft width 150 ft
ILS 108.70 / hdg 30

(C) RW 21L length 9904 ft width 150 ft
ILS 110.90 / hdg 210

(D) RW 21R length 10012 ft width 150 ft
---- / hdg 210

Location; KLUF
Day. 14 / Time. 02.58 Zulu
* Altimeter: 29.71
* Temperature: 40° c. 104°f.
* Wind from: 210° Speed 13 kn.
Dewpoint: 11° c.
Visibility: 10 Statute Miles.
Clouds: Clear (automated report).

KLUF 140258Z AUTO 21013KT 10SM CLR 40/11 A2971 RMK AO2 SLP042 T04010112 55001 $

Going to: --> -->


Wind From 210°
Speed 13 kn.

 
 
jpsmedia worldairports.se 2020   terms of use